Race profile

Nagoya Women's
Nagoya JPN
10 Mar 2013
Road
Marathon
Record quality course
Single gender race
Women: -50.99 sec (-1.20 sec/km)
Women: 698
Total: 14124
Men: 0
Women: 14124
Nagoya Women's

Results (women)

Finished Time Flags Given name Surname Alternate name Citizenship Birth date Prize money Actions
1 2:23:34 Ryoko Kizaki JPN 21 Jun 1985
2 2:23:51 Birhane Dibaba Adugna ETH 11 Sep 1993
3 2:24:05 Mizuki Noguchi Tanaka JPN 03 Jul 1978
4 2:25:46 Jelena Prokopcuka Celnova LAT 21 Sep 1976
5 2:26:17 Eri Hayakawa JPN 15 Nov 1981
6 2:26:20 Mestawat Tufa Demissie ETH 14 Sep 1983
7 2:27:17 Yoko Miyauchi JPN 19 Jun 1983
8 2:28:08 Genet Getaneh Wendimagegnehu ETH 06 Jan 1986
9 2:30:26 Asami Kato JPN 12 Oct 1990
10 2:30:52 Misato Horie JPN 10 Mar 1987
11 2:30:57 Asami Furuse JPN 17 Mar 1988
12 2:32:31 Nicole Chapple AUS 09 Feb 1981
13 2:32:43 Hiroko Yoshitomi JPN 26 Dec 1983
14 2:32:50 Chizuru Ideta JPN 15 Nov 1986
15 2:34:01 Kumi Ogura JPN 24 Jun 1985
16 2:35:47 Shino Saito JPN 07 Sep 1988
17 2:37:14 Akane Mutazaki JPN 10 Jan 1986
18 2:38:06 Sumiko Suzuki JPN 10 Mar 1986
19 2:39:22 Tomomi Higuchi JPN 22 Aug 1984
20 2:40:21 Mai Tanabe JPN 1986
21 2:41:26 Megumi Kanetomo JPN 14 Nov 1986
22 2:42:23 Miki Oka JPN 20 May 1987
23 2:44:11 Mariko Asato JPN 11 Aug 1987
24 2:45:54 Sayaka Yamaguchi JPN 02 Jan 1987
25 2:47:33 Saori Kawai JPN 02 Oct 1976
26 2:47:37 Haruna Kira JPN 20 Jul 1987
27 2:47:47 Yuri Yoshizumi JPN 01 Jul 1986
28 2:48:19 Yoshimi Hoshino JPN 17 Jun 1966
29 2:50:14 Clare Williams AUS 26 Jan 1971
30 2:51:41 Shiho Suetsugu JPN
31 2:51:47 Mitsui Kako JPN 1976
32 2:52:57 Mai Fujisawa JPN 21 Sep 1974
34 2:53:12 Yumiko Une JPN 1971
35 2:53:18 Naomi Onishi JPN
36 2:53:24 Nana Higashi Kaneko JPN
37 2:53:24 Yoshie Amano JPN 02 Apr 1984
42 2:56:03 Aya Kubota JPN
44 2:56:33 Emiko Hirai JPN
45 2:57:02 Yoshie Kitomi JPN 25 Dec 1984
46 2:57:03 Takami Ominami JPN 15 Nov 1975
49 2:57:38 Akiko Misawa JPN 14 Apr 1976
50 2:57:45 Kirsten Molloy AUS 28 May 1979
93 3:03:37 Hiromi Ominami JPN 15 Nov 1975
95 3:03:52 Michiko Hayase JPN
101 3:04:29 Hifumi Fukuyasu JPN 12 Aug 1969
121 3:06:24 Kyoko Fukushi JPN
137 3:07:57 Keiko Kimura JPN
DNF DNF Georgina Rono Chepkirui KEN 19 May 1980
DNF DNF Rei Ohara JPN 10 Aug 1990
DNF DNF Margaret Agai KEN 10 Jun 1988